createdAt,value
2023-03-17T00:04:01.032Z,59.5
2023-03-17T00:19:35.505Z,57.6
2023-03-17T00:35:09.865Z,56.3
2023-03-17T00:50:44.236Z,56.1
2023-03-17T01:06:19.021Z,54.6
2023-03-17T01:21:53.826Z,55.4
2023-03-17T01:37:28.180Z,55.2
2023-03-17T01:53:02.656Z,55.2
2023-03-17T02:08:37.037Z,54.8
2023-03-17T02:24:11.455Z,54.2
2023-03-17T02:39:45.811Z,53.9
2023-03-17T02:55:20.261Z,53.9
2023-03-17T03:10:54.922Z,53.4
2023-03-17T03:26:29.315Z,52.5
2023-03-17T03:42:03.703Z,52.6
2023-03-17T03:57:38.082Z,52.2
2023-03-17T04:13:12.470Z,52.3
2023-03-17T04:28:46.830Z,51.7
2023-03-17T04:44:21.180Z,53
2023-03-17T04:59:55.571Z,51.9
2023-03-17T05:15:29.965Z,52.5
2023-03-17T05:31:04.614Z,52.8
2023-03-17T05:46:39.225Z,54.8
2023-03-17T06:02:13.727Z,55.4
2023-03-17T06:17:48.179Z,55.8
2023-03-17T06:33:22.695Z,55
2023-03-17T06:48:57.056Z,52.5
2023-03-17T07:04:31.531Z,52.7
2023-03-17T07:20:06.112Z,51.6
2023-03-17T07:35:40.799Z,50.1
2023-03-17T07:51:15.303Z,48.8
2023-03-17T08:06:49.745Z,46.2
2023-03-17T08:22:24.251Z,44.2
2023-03-17T08:37:58.696Z,43.1
2023-03-17T08:53:33.165Z,43.2
2023-03-17T09:09:07.619Z,41.5
2023-03-17T09:24:42.135Z,41.1
2023-03-17T09:40:16.621Z,40.4
2023-03-17T09:55:51.117Z,39.2
2023-03-17T10:11:25.610Z,39.7
2023-03-17T10:27:00.105Z,38.6
2023-03-17T10:42:34.649Z,38.6
2023-03-17T10:58:09.311Z,37.2
2023-03-17T11:13:43.874Z,35.9
2023-03-17T11:29:17.846Z,35
2023-03-17T11:44:52.406Z,33.7
2023-03-17T12:00:26.972Z,31.8
2023-03-17T12:16:01.828Z,31.5
2023-03-17T12:31:36.809Z,31.5
2023-03-17T12:47:11.663Z,32.2
2023-03-17T13:02:46.266Z,31.1
2023-03-17T13:18:20.850Z,28.9
2023-03-17T13:33:55.486Z,26.8
2023-03-17T13:49:30.086Z,26.1
2023-03-17T14:05:04.699Z,26.7
2023-03-17T14:20:39.270Z,26.9
2023-03-17T14:36:15.708Z,26.5
2023-03-17T14:51:50.453Z,27.3
2023-03-17T15:07:25.007Z,28
2023-03-17T15:22:59.607Z,29.6
2023-03-17T15:38:34.199Z,30.8
2023-03-17T15:54:08.746Z,30.7
2023-03-17T16:09:43.309Z,32.9
2023-03-17T16:25:17.849Z,35.7
2023-03-17T16:40:52.460Z,34.7
2023-03-17T16:56:27.313Z,35.1
2023-03-17T17:12:02.088Z,37.9
2023-03-17T17:27:36.681Z,38.7
2023-03-17T17:43:11.512Z,39.8
2023-03-17T17:58:46.085Z,41.3
2023-03-17T18:14:20.676Z,43
2023-03-17T18:29:55.195Z,44.8
2023-03-17T18:45:29.772Z,46.3
2023-03-17T19:01:04.461Z,48.7
2023-03-17T19:16:39.363Z,49.8
2023-03-17T19:32:15.567Z,50
2023-03-17T19:47:50.114Z,51.6
2023-03-17T20:03:27.253Z,51.9
2023-03-17T20:19:01.763Z,53.3
2023-03-17T20:34:36.316Z,51.6
2023-03-17T20:50:10.780Z,54.5
2023-03-17T21:05:45.218Z,52
2023-03-17T21:21:19.677Z,50.8
2023-03-17T21:36:54.145Z,51.6
2023-03-17T21:52:28.653Z,50.8
2023-03-17T22:08:03.102Z,51.5
2023-03-17T22:23:37.535Z,52.9
2023-03-17T22:39:12.072Z,52.8
2023-03-17T22:54:46.505Z,52.9
2023-03-17T23:10:20.942Z,54.4
2023-03-17T23:25:55.407Z,54.1
2023-03-17T23:41:29.891Z,54.1
2023-03-17T23:57:04.619Z,55.2
